Terminal Aerodrome Forecast
Issued by NWS Wichita, KS

Home | Current Version | Previous Version | Text Only | Print | Product List | Glossary On
Versions: 1 2 3 4 5 6 7 8 9 10 11 12 13 14 15 16
904
FTUS43 KICT 280520
TAFICT
TAF
KICT 280520Z 2806/2906 35013KT P6SM SCT070 BKN250
     FM280800 34012KT P6SM VCSH BKN070
     FM281000 34012KT P6SM SCT070 BKN250=

USA.gov is the U.S. government's official web portal to all federal, state and local government web resources and services.